Time;durP1;ratioP1;P1;durP2;ratioP2;P2;SDS_P1;SDS_P2;PMS_P1;PMS_P2;Temp;Humidity;BMP_temperature;BMP_pressure;BME280_temperature;BME280_humidity;BME280_pressure;Samples;Min_cycle;Max_cycle;Signal;HPM_P1;HPM_P2
2023/06/26 00:00:56;;;;;;;9.95;4.22;;;22.20;71.30;;;;;;5004956;28;37217;-86
2023/06/26 00:03:23;;;;;;;10.07;4.63;;;22.10;73.60;;;;;;4983947;28;39149;-85
2023/06/26 00:05:50;;;;;;;10.30;4.45;;;22.00;79.70;;;;;;4999780;28;38179;-86
2023/06/26 00:08:17;;;;;;;9.98;4.82;;;21.90;82.20;;;;;;4999633;28;37296;-84
2023/06/26 00:10:43;;;;;;;11.02;4.20;;;21.90;85.40;;;;;;5003361;28;36724;-85
2023/06/26 00:13:12;;;;;;;10.50;4.40;;;21.90;87.10;;;;;;5013361;28;40023;-85
2023/06/26 00:15:39;;;;;;;12.40;4.20;;;21.70;90.40;;;;;;4993443;28;37692;-86
2023/06/26 00:18:05;;;;;;;9.05;4.75;;;21.70;91.80;;;;;;5002019;28;38467;-85
2023/06/26 00:20:33;;;;;;;11.73;4.22;;;21.60;92.80;;;;;;4995645;28;36341;-83
2023/06/26 00:23:00;;;;;;;10.50;3.92;;;21.50;94.30;;;;;;5010261;28;38751;-84
2023/06/26 00:25:26;;;;;;;11.10;3.88;;;21.40;94.90;;;;;;5015365;28;37910;-83
2023/06/26 00:27:52;;;;;;;11.18;4.25;;;21.40;96.80;;;;;;5027475;28;38259;-85
2023/06/26 00:30:18;;;;;;;9.32;4.25;;;21.40;96.70;;;;;;4989570;28;36231;-85
2023/06/26 00:32:44;;;;;;;12.20;4.40;;;21.40;96.50;;;;;;5012236;28;37683;-85
2023/06/26 00:35:11;;;;;;;12.57;4.57;;;21.30;97.30;;;;;;4996495;28;37175;-85
2023/06/26 00:37:37;;;;;;;11.23;4.53;;;21.20;97.50;;;;;;4997144;28;37217;-85
2023/06/26 00:40:05;;;;;;;13.05;4.90;;;21.20;99.80;;;;;;4996230;28;36285;-85
2023/06/26 00:42:31;;;;;;;11.00;4.60;;;21.10;99.90;;;;;;4988763;28;47424;-83
2023/06/26 00:44:57;;;;;;;13.60;4.93;;;21.10;99.90;;;;;;5020508;28;37268;-84
2023/06/26 00:47:25;;;;;;;16.20;5.18;;;21.10;99.90;;;;;;5012366;28;38044;-85
2023/06/26 00:49:51;;;;;;;13.20;5.07;;;21.00;99.90;;;;;;5021341;28;36088;-85
2023/06/26 00:52:18;;;;;;;17.70;5.20;;;21.00;99.90;;;;;;4994559;28;37662;-83
2023/06/26 00:54:44;;;;;;;18.65;5.15;;;21.00;99.90;;;;;;5007477;28;38279;-85
2023/06/26 00:57:10;;;;;;;15.70;5.32;;;21.00;99.90;;;;;;4998216;28;37053;-83
2023/06/26 00:59:41;;;;;;;17.45;5.35;;;21.00;99.90;;;;;;4998480;28;36016;-84
2023/06/26 01:02:07;;;;;;;20.27;6.20;;;20.90;99.90;;;;;;5462859;22;38904;-78
2023/06/26 01:04:35;;;;;;;17.23;5.60;;;20.80;99.90;;;;;;5015969;28;36815;-78
2023/06/26 01:07:03;;;;;;;21.83;6.13;;;20.80;99.90;;;;;;5006652;28;38362;-78
2023/06/26 01:09:31;;;;;;;21.35;6.03;;;20.70;99.90;;;;;;5015193;28;37462;-78
2023/06/26 01:11:57;;;;;;;14.43;5.72;;;20.70;99.90;;;;;;5027812;28;40550;-79
2023/06/26 01:14:23;;;;;;;21.30;6.28;;;20.70;99.90;;;;;;5025049;28;38637;-80
2023/06/26 01:16:51;;;;;;;15.75;5.93;;;20.80;99.90;;;;;;5023589;28;36839;-79
2023/06/26 01:19:30;;;;;;;19.00;5.78;;;20.70;99.90;;;;;;5024580;28;37066;-79
2023/06/26 01:22:20;;;;;;;20.00;5.90;;;20.80;99.90;;;;;;5018626;28;38442;-78
2023/06/26 01:25:08;;;;;;;17.15;5.93;;;20.80;99.90;;;;;;4998095;28;48579;-79
2023/06/26 01:27:35;;;;;;;22.80;6.07;;;20.90;99.90;;;;;;5020351;28;46785;-79
2023/06/26 01:30:06;;;;;;;17.63;6.50;;;20.90;99.90;;;;;;4999162;28;36077;-79
2023/06/26 01:32:33;;;;;;;17.10;6.20;;;20.90;99.90;;;;;;5001330;28;48673;-78
2023/06/26 01:35:01;;;;;;;16.42;6.97;;;20.80;99.90;;;;;;4997483;28;37155;-79
2023/06/26 01:37:28;;;;;;;16.67;5.43;;;20.80;99.90;;;;;;5006902;28;38361;-78
2023/06/26 01:39:54;;;;;;;12.40;6.03;;;20.80;99.90;;;;;;5003151;28;36220;-79
2023/06/26 01:42:20;;;;;;;19.33;5.78;;;20.80;99.90;;;;;;4998346;28;37640;-78
2023/06/26 01:44:47;;;;;;;17.55;5.68;;;20.80;99.90;;;;;;4996771;28;37992;-79
2023/06/26 01:47:18;;;;;;;16.80;5.93;;;20.80;99.90;;;;;;4999380;28;37350;-78
2023/06/26 01:49:58;;;;;;;13.27;5.70;;;20.80;99.90;;;;;;5001208;28;36149;-77
2023/06/26 01:52:35;;;;;;;18.20;5.63;;;20.80;99.90;;;;;;4995955;28;37467;-78
2023/06/26 01:55:19;;;;;;;18.10;5.97;;;20.80;99.90;;;;;;4999185;28;37433;-80
2023/06/26 01:57:47;;;;;;;21.08;5.82;;;20.80;99.90;;;;;;5004513;28;48310;-80
2023/06/26 02:00:19;;;;;;;17.05;5.75;;;20.80;99.90;;;;;;5004277;28;36058;-80
2023/06/26 02:02:45;;;;;;;18.05;6.80;;;20.80;99.90;;;;;;4999858;28;46669;-78
2023/06/26 02:05:12;;;;;;;14.77;6.00;;;20.80;99.90;;;;;;4998352;28;38023;-78
2023/06/26 02:07:38;;;;;;;17.05;5.88;;;20.80;99.90;;;;;;5001975;28;37056;-78
2023/06/26 02:10:05;;;;;;;14.52;5.70;;;20.80;99.90;;;;;;4997235;28;38211;-78
2023/06/26 02:12:31;;;;;;;16.15;5.70;;;20.80;99.90;;;;;;5001133;28;38115;-78
2023/06/26 02:14:57;;;;;;;14.18;5.30;;;20.80;99.90;;;;;;5000697;28;38196;-80
2023/06/26 02:17:24;;;;;;;17.75;5.43;;;20.80;99.90;;;;;;5006080;28;37793;-79
2023/06/26 02:19:50;;;;;;;15.63;4.97;;;20.80;99.90;;;;;;5010658;28;37004;-79
2023/06/26 02:22:16;;;;;;;17.90;5.85;;;20.80;99.90;;;;;;4999758;28;38619;-79
2023/06/26 02:24:43;;;;;;;16.40;4.97;;;20.80;99.90;;;;;;5018656;28;37125;-77
2023/06/26 02:27:10;;;;;;;8.60;4.28;;;20.80;99.90;;;;;;5011626;28;36900;-77
2023/06/26 02:29:37;;;;;;;11.65;4.53;;;20.80;99.90;;;;;;5019204;28;37784;-78
2023/06/26 02:32:03;;;;;;;17.23;5.13;;;20.80;98.80;;;;;;5011328;28;37643;-77
2023/06/26 02:34:30;;;;;;;10.23;4.10;;;20.80;98.10;;;;;;5014522;28;37074;-79
2023/06/26 02:36:56;;;;;;;12.85;4.90;;;20.80;95.10;;;;;;5012768;28;39075;-77
2023/06/26 02:39:22;;;;;;;26.27;4.78;;;20.80;98.60;;;;;;5012341;28;37109;-77
2023/06/26 02:41:48;;;;;;;16.30;4.13;;;20.70;97.80;;;;;;5010795;28;39236;-78
2023/06/26 02:44:15;;;;;;;16.35;4.90;;;20.70;97.00;;;;;;5009798;28;38629;-78
2023/06/26 02:46:41;;;;;;;15.00;4.75;;;20.60;97.60;;;;;;5016817;28;38278;-78
2023/06/26 02:49:09;;;;;;;20.13;4.88;;;20.50;97.50;;;;;;5007408;28;37573;-80
2023/06/26 02:51:35;;;;;;;14.85;5.03;;;20.50;98.90;;;;;;5013285;28;37487;-80
2023/06/26 02:54:01;;;;;;;13.35;4.88;;;20.40;99.90;;;;;;5004014;28;38501;-79
2023/06/26 02:56:31;;;;;;;12.02;4.40;;;20.30;99.90;;;;;;5021449;28;36992;-80
2023/06/26 02:58:58;;;;;;;13.65;4.90;;;20.30;99.90;;;;;;5018274;28;37420;-78
2023/06/26 03:01:24;;;;;;;9.55;4.50;;;20.20;99.90;;;;;;5007610;28;39097;-80
2023/06/26 03:03:51;;;;;;;25.60;6.22;;;20.20;99.90;;;;;;5016118;28;36863;-80
2023/06/26 03:06:17;;;;;;;15.85;5.32;;;20.20;99.90;;;;;;5015690;28;39110;-79
2023/06/26 03:08:43;;;;;;;14.75;4.97;;;20.10;99.90;;;;;;5013202;28;37671;-80
2023/06/26 03:11:10;;;;;;;18.25;5.43;;;20.10;99.90;;;;;;5011424;28;38471;-77
2023/06/26 03:13:37;;;;;;;14.55;4.82;;;20.00;99.90;;;;;;5016202;28;37658;-77
2023/06/26 03:16:04;;;;;;;16.67;4.38;;;20.00;99.90;;;;;;5021482;28;38258;-78
2023/06/26 03:18:30;;;;;;;12.18;4.43;;;19.90;99.90;;;;;;5006784;28;37076;-78
2023/06/26 03:20:57;;;;;;;15.60;4.57;;;19.90;99.90;;;;;;5007081;28;37928;-79
2023/06/26 03:23:24;;;;;;;18.95;5.03;;;19.80;99.90;;;;;;5004497;28;37219;-78
2023/06/26 03:25:51;;;;;;;15.77;4.55;;;19.80;99.90;;;;;;5009793;28;38065;-79
2023/06/26 03:28:17;;;;;;;12.68;4.63;;;19.80;99.90;;;;;;5006186;28;37632;-78
2023/06/26 03:30:43;;;;;;;11.45;4.53;;;19.80;99.90;;;;;;5007619;28;37675;-78
2023/06/26 03:33:10;;;;;;;11.55;4.35;;;19.70;99.90;;;;;;5012025;28;39169;-79
2023/06/26 03:35:36;;;;;;;18.73;6.57;;;19.70;99.90;;;;;;5001566;28;39399;-78
2023/06/26 03:38:04;;;;;;;9.35;3.72;;;19.70;99.90;;;;;;5005247;28;37376;-78
2023/06/26 03:40:30;;;;;;;17.85;5.20;;;19.70;99.90;;;;;;5005595;28;38576;-79
2023/06/26 03:42:56;;;;;;;11.60;4.18;;;19.70;99.90;;;;;;5013367;28;37728;-79
2023/06/26 03:45:22;;;;;;;14.93;4.97;;;19.60;99.90;;;;;;5015202;28;37207;-79
2023/06/26 03:47:50;;;;;;;16.17;4.60;;;19.60;99.90;;;;;;5016783;28;20054;-79
2023/06/26 03:50:16;;;;;;;15.90;5.53;;;19.60;99.90;;;;;;5011674;28;39025;-79
2023/06/26 03:52:42;;;;;;;16.67;5.10;;;19.50;99.90;;;;;;5024119;28;39385;-79
2023/06/26 03:55:09;;;;;;;17.90;5.10;;;19.50;99.90;;;;;;5017950;28;34897;-79
2023/06/26 03:57:35;;;;;;;13.52;4.65;;;19.40;99.90;;;;;;5031068;28;36249;-80
2023/06/26 04:00:04;;;;;;;15.25;4.35;;;19.40;99.90;;;;;;5018757;28;40247;-80
2023/06/26 04:02:31;;;;;;;16.92;4.65;;;19.40;99.90;;;;;;5024531;28;39848;-80
2023/06/26 04:04:57;;;;;;;15.02;4.85;;;19.40;99.90;;;;;;5027175;28;37960;-80
2023/06/26 04:07:23;;;;;;;19.02;5.25;;;19.40;99.90;;;;;;5015588;28;36387;-79
2023/06/26 04:09:49;;;;;;;18.10;4.82;;;19.40;99.90;;;;;;5018221;28;39855;-79
2023/06/26 04:12:15;;;;;;;16.42;4.70;;;19.40;99.90;;;;;;5006354;28;37410;-80
2023/06/26 04:14:41;;;;;;;14.38;4.43;;;19.40;99.90;;;;;;5019514;28;38964;-79
2023/06/26 04:17:07;;;;;;;14.07;4.50;;;19.40;99.90;;;;;;5012568;28;36770;-79
2023/06/26 04:19:35;;;;;;;15.98;4.30;;;19.40;99.90;;;;;;5008908;28;37812;-79
2023/06/26 04:22:02;;;;;;;16.67;4.65;;;19.40;99.90;;;;;;5009078;28;39374;-78
2023/06/26 04:24:28;;;;;;;12.63;4.70;;;19.40;99.90;;;;;;5010069;28;37118;-78
2023/06/26 04:26:56;;;;;;;17.30;4.70;;;19.40;99.90;;;;;;5012596;28;36037;-78
2023/06/26 04:29:30;;;;;;;11.93;4.65;;;19.50;99.90;;;;;;5006268;28;37465;-80
2023/06/26 04:31:58;;;;;;;12.27;4.20;;;19.50;99.90;;;;;;5007613;28;37574;-78
2023/06/26 04:34:27;;;;;;;14.93;4.47;;;19.50;99.90;;;;;;5014428;28;37342;-79
2023/06/26 04:36:54;;;;;;;14.02;4.20;;;19.60;99.90;;;;;;5011695;28;36476;-80
2023/06/26 04:39:20;;;;;;;10.93;4.25;;;19.70;99.90;;;;;;5016184;28;38949;-79
2023/06/26 04:41:46;;;;;;;10.50;3.85;;;19.70;99.90;;;;;;5021432;28;37755;-79
2023/06/26 04:44:12;;;;;;;8.10;3.83;;;19.80;99.90;;;;;;5022839;28;38123;-78
2023/06/26 04:46:41;;;;;;;10.68;3.70;;;19.80;99.90;;;;;;5018076;28;37360;-78
2023/06/26 04:49:08;;;;;;;13.38;3.53;;;19.90;99.90;;;;;;5023367;28;39137;-79
2023/06/26 04:51:40;;;;;;;11.07;3.67;;;20.00;99.90;;;;;;5023750;28;36925;-79
2023/06/26 04:54:08;;;;;;;13.20;4.30;;;20.00;99.90;;;;;;5016076;28;39198;-79
2023/06/26 04:56:34;;;;;;;14.07;3.50;;;20.00;99.90;;;;;;5006231;28;36005;-78
2023/06/26 05:40:34;;;;;;;8.90;2.10;;;20.70;1.00;;;;;;4355803;23;20038;-80
2023/06/26 05:49:01;;;;;;;11.10;3.95;;;20.50;1.00;;;;;;5051440;23;20041;-79
2023/06/26 05:51:28;;;;;;;9.68;2.10;;;20.50;1.00;;;;;;4918211;28;47080;-78
2023/06/26 05:54:03;;;;;;;10.98;1.80;;;20.20;1.00;;;;;;4915703;28;36907;-81
2023/06/26 05:56:33;;;;;;;5.60;1.38;;;19.90;19.30;;;;;;4926079;28;50226;-80
2023/06/26 05:59:11;;;;;;;4.97;1.80;;;20.00;1.00;;;;;;5061671;23;40285;-80
2023/06/26 06:01:37;;;;;;;7.47;1.73;;;20.20;1.00;;;;;;4920830;29;48197;-80
2023/06/26 06:04:03;;;;;;;7.30;1.80;;;20.20;1.00;;;;;;4926809;28;39244;-79
2023/06/26 06:06:29;;;;;;;4.78;1.63;;;20.00;1.00;;;;;;4937006;28;35668;-80
2023/06/26 06:08:55;;;;;;;6.18;1.42;;;20.10;1.00;;;;;;4938694;28;42552;-79
2023/06/26 06:11:22;;;;;;;5.43;1.42;;;20.30;1.00;;;;;;4940232;28;38965;-79
2023/06/26 06:13:49;;;;;;;11.23;2.05;;;20.10;1.20;;;;;;4930209;28;37367;-78
2023/06/26 06:16:15;;;;;;;9.38;2.00;;;20.00;1.00;;;;;;4928727;28;36831;-79
2023/06/26 06:19:21;;;;;;;7.20;1.90;;;19.80;1.00;;;;;;4943001;28;37696;-79
2023/06/26 06:21:47;;;;;;;11.13;1.90;;;19.80;1.00;;;;;;4998544;23;50098;-78
2023/06/26 06:26:44;;;;;;;6.25;1.35;;;20.30;1.00;;;;;;4879567;29;20050;-81
2023/06/26 06:29:38;;;;;;;6.65;1.67;;;20.40;1.00;;;;;;4880948;29;39104;-79
2023/06/26 06:45:59;;;;;;;5.18;1.38;;;20.80;1.00;;;;;;5415040;23;20033;-80
2023/06/26 06:48:42;;;;;;;7.75;1.65;;;21.10;1.00;;;;;;4915974;28;37150;-79
2023/06/26 06:59:19;;;;;;;5.20;1.60;;;21.60;1.00;;;;;;5021701;23;20045;-79
2023/06/26 07:01:48;;;;;;;5.55;1.17;;;21.70;1.00;;;;;;4907224;29;39120;-79
2023/06/26 07:04:30;;;;;;;7.20;1.40;;;21.30;1.00;;;;;;4930988;28;38502;-79
2023/06/26 07:07:20;;;;;;;5.47;1.30;;;21.30;1.00;;;;;;4900915;28;41341;-79
2023/06/26 07:09:51;;;;;;;7.65;1.35;;;21.50;1.00;;;;;;4903112;29;49942;-78
2023/06/26 07:12:30;;;;;;;5.93;1.52;;;21.90;1.00;;;;;;4875508;28;38307;-77
2023/06/26 07:15:00;;;;;;;7.07;1.60;;;22.20;1.00;;;;;;4904858;29;37429;-78
2023/06/26 07:17:46;;;;;;;5.93;1.70;;;22.30;1.00;;;;;;4899560;29;38543;-79
2023/06/26 07:20:41;;;;;;;7.70;1.30;;;22.20;1.00;;;;;;4910613;29;38117;-80
2023/06/26 07:23:27;;;;;;;7.32;1.40;;;22.20;1.00;;;;;;4916845;28;40200;-79
2023/06/26 07:26:00;;;;;;;7.68;1.80;;;22.20;1.00;;;;;;4894658;29;38150;-79
2023/06/26 07:28:39;;;;;;;6.28;1.52;;;22.40;1.00;;;;;;4908186;29;39702;-78
2023/06/26 07:31:18;;;;;;;6.05;1.70;;;22.40;1.00;;;;;;4867122;29;38332;-80
2023/06/26 07:34:32;;;;;;;7.05;1.70;;;22.50;1.00;;;;;;4897579;29;39552;-79
2023/06/26 07:40:30;;;;;;;7.43;1.63;;;23.10;1.00;;;;;;5290585;23;20073;-79
2023/06/26 07:43:13;;;;;;;6.63;1.50;;;22.90;1.00;;;;;;4862056;29;50303;-79
2023/06/26 07:45:51;;;;;;;4.68;1.55;;;22.90;1.00;;;;;;4902438;29;38155;-78
2023/06/26 07:48:44;;;;;;;15.40;2.05;;;22.70;1.00;;;;;;4897107;29;38922;-79
2023/06/26 07:51:50;;;;;;;7.03;1.60;;;22.90;1.00;;;;;;4876968;29;39404;-80
2023/06/26 07:54:47;;;;;;;5.80;1.55;;;22.90;1.00;;;;;;4897925;28;37554;-79
2023/06/26 07:57:33;;;;;;;5.55;1.50;;;22.70;1.00;;;;;;4887056;28;38993;-80
2023/06/26 08:00:37;;;;;;;8.70;1.80;;;22.50;1.00;;;;;;4904008;28;38522;-79
2023/06/26 08:04:03;;;;;;;4.72;1.52;;;22.50;1.00;;;;;;4890875;28;49766;-80
2023/06/26 08:06:43;;;;;;;8.75;1.60;;;22.40;1.00;;;;;;4809963;29;49275;-80
2023/06/26 08:09:30;;;;;;;7.85;1.50;;;22.70;1.00;;;;;;4846306;29;38956;-80
2023/06/26 08:12:16;;;;;;;7.03;1.85;;;23.00;1.00;;;;;;4817465;29;39922;-79
2023/06/26 08:14:50;;;;;;;5.00;1.38;;;23.00;99.90;;;;;;4813490;29;39497;-80
2023/06/26 08:17:28;;;;;;;6.93;1.92;;;22.80;1.00;;;;;;4849600;29;38711;-80
2023/06/26 08:20:36;;;;;;;6.03;1.50;;;23.00;1.00;;;;;;4834357;29;37668;-80
2023/06/26 08:23:35;;;;;;;6.82;1.20;;;23.30;24.60;;;;;;4808903;29;50352;-80
2023/06/26 08:26:32;;;;;;;5.53;1.40;;;23.50;99.90;;;;;;4822144;29;39324;-80
2023/06/26 08:29:08;;;;;;;6.38;1.38;;;23.80;1.00;;;;;;4854863;29;38774;-81
2023/06/26 08:31:45;;;;;;;10.95;1.70;;;23.50;29.20;;;;;;4842708;29;47226;-80
2023/06/26 08:34:19;;;;;;;5.97;1.60;;;23.60;99.90;;;;;;4844966;29;37659;-80
2023/06/26 08:37:32;;;;;;;3.78;1.48;;;23.50;1.00;;;;;;4877395;29;38605;-80
2023/06/26 08:43:28;;;;;;;10.40;1.40;;;23.50;1.00;;;;;;5238325;23;20045;-79
2023/06/26 08:48:41;;;;;;;10.55;1.52;;;23.20;1.00;;;;;;5293869;23;20045;-81
2023/06/26 08:51:24;;;;;;;4.53;1.40;;;23.10;1.00;;;;;;4900062;23;36774;-80
2023/06/26 08:54:28;;;;;;;4.93;1.20;;;23.40;99.90;;;;;;4926772;28;38637;-81
2023/06/26 08:56:57;;;;;;;6.22;1.33;;;23.60;1.00;;;;;;4926908;23;39240;-80
2023/06/26 08:59:24;;;;;;;7.15;1.50;;;23.50;1.00;;;;;;4915936;29;37047;-79
2023/06/26 09:01:50;;;;;;;16.65;2.20;;;23.60;99.90;;;;;;4926955;23;37286;-79
2023/06/26 09:07:22;;;;;;;8.60;1.50;;;23.40;99.90;;;;;;4978282;23;20051;-78
2023/06/26 09:09:48;;;;;;;9.75;1.70;;;23.60;1.00;;;;;;5166217;23;37867;-78
2023/06/26 09:12:15;;;;;;;2.53;1.30;;;23.60;1.00;;;;;;4906902;29;37629;-78
2023/06/26 09:17:23;;;;;;;10.10;1.65;;;23.40;99.90;;;;;;4979891;23;20049;-80
2023/06/26 09:19:58;;;;;;;9.05;1.90;;;23.40;99.90;;;;;;4894706;29;38435;-79
2023/06/26 09:22:26;;;;;;;6.75;1.55;;;23.50;1.00;;;;;;4886267;29;36387;-79
2023/06/26 09:24:53;;;;;;;6.18;1.60;;;23.90;1.00;;;;;;4895754;29;41665;-79
2023/06/26 09:27:19;;;;;;;4.68;1.50;;;24.10;99.90;;;;;;4888709;29;35777;-78
2023/06/26 09:29:47;;;;;;;7.10;1.50;;;24.00;99.90;;;;;;4893434;29;37946;-79
2023/06/26 09:32:13;;;;;;;4.90;1.40;;;23.90;99.90;;;;;;4892918;29;37670;-80
2023/06/26 09:34:43;;;;;;;13.60;2.20;;;23.40;1.00;;;;;;4894219;29;36888;-80
2023/06/26 09:37:12;;;;;;;14.60;2.30;;;23.30;1.00;;;;;;4891184;29;39438;-80
2023/06/26 09:39:38;;;;;;;9.25;2.08;;;23.40;1.00;;;;;;4888386;29;36892;-79
2023/06/26 09:42:06;;;;;;;10.48;2.25;;;23.00;1.00;;;;;;4887483;29;37651;-79
2023/06/26 09:44:33;;;;;;;7.20;1.95;;;23.10;99.90;;;;;;4893950;29;39269;-79
2023/06/26 09:47:03;;;;;;;7.97;2.00;;;23.10;1.00;;;;;;4902719;29;37808;-79
2023/06/26 09:49:42;;;;;;;7.35;1.77;;;23.10;1.00;;;;;;4895625;29;48573;-79
2023/06/26 09:52:09;;;;;;;5.93;1.75;;;22.80;99.90;;;;;;4901536;29;36606;-79
2023/06/26 09:54:35;;;;;;;10.32;1.80;;;22.50;1.00;;;;;;4901749;29;39278;-82
2023/06/26 09:57:16;;;;;;;11.50;1.70;;;22.90;1.00;;;;;;4904063;29;41532;-81
2023/06/26 09:59:45;;;;;;;9.45;1.80;;;23.10;1.00;;;;;;4899473;29;50171;-79
2023/06/26 10:02:11;;;;;;;15.18;1.73;;;23.20;1.00;;;;;;4895577;29;37478;-77
2023/06/26 10:04:38;;;;;;;10.05;1.70;;;23.40;44.00;;;;;;4893037;29;37695;-78
2023/06/26 10:07:11;;;;;;;9.73;1.83;;;23.30;1.00;;;;;;4891829;29;39837;-78
2023/06/26 10:09:48;;;;;;;9.13;1.33;;;23.20;99.90;;;;;;4892840;29;39377;-78
2023/06/26 10:12:19;;;;;;;4.78;1.20;;;23.20;1.00;;;;;;4892822;29;38796;-80
2023/06/26 10:14:46;;;;;;;6.78;1.58;;;23.00;99.90;;;;;;4895446;29;41693;-79
2023/06/26 10:17:16;;;;;;;7.43;1.67;;;23.30;1.00;;;;;;4894367;29;38633;-79
2023/06/26 10:19:45;;;;;;;3.35;1.50;;;23.40;1.00;;;;;;4894606;29;37617;-79
2023/06/26 10:22:21;;;;;;;6.38;1.60;;;23.60;1.00;;;;;;4899058;29;36745;-80
2023/06/26 10:24:49;;;;;;;4.32;1.30;;;23.90;1.00;;;;;;4914701;29;38913;-80
2023/06/26 10:27:20;;;;;;;7.10;1.38;;;24.00;1.00;;;;;;4895664;29;36964;-81
2023/06/26 10:29:50;;;;;;;5.37;1.30;;;23.90;55.00;;;;;;4894700;29;39260;-80
2023/06/26 10:32:18;;;;;;;2.45;1.20;;;24.20;1.00;;;;;;4891105;29;37859;-77
2023/06/26 10:34:44;;;;;;;4.00;1.30;;;24.50;1.00;;;;;;4878083;29;37828;-80
2023/06/26 10:37:12;;;;;;;4.57;1.10;;;24.60;1.00;;;;;;4888469;29;38950;-80
2023/06/26 10:39:50;;;;;;;7.68;1.67;;;24.70;99.90;;;;;;4885187;29;37260;-79
2023/06/26 10:42:18;;;;;;;4.78;1.27;;;25.10;99.90;;;;;;4880540;29;38694;-79
2023/06/26 10:44:46;;;;;;;3.88;1.20;;;25.10;1.00;;;;;;4895941;29;38077;-79
2023/06/26 10:47:32;;;;;;;3.88;1.17;;;25.10;1.00;;;;;;4899193;28;37652;-79
2023/06/26 10:50:24;;;;;;;4.70;1.13;;;24.90;99.90;;;;;;4896001;29;48286;-78
2023/06/26 10:53:24;;;;;;;5.50;0.80;;;24.60;1.00;;;;;;4884105;29;48658;-79
2023/06/26 10:56:00;;;;;;;1.63;0.93;;;24.10;1.00;;;;;;4868779;29;47195;-78
2023/06/26 10:58:42;;;;;;;4.50;1.10;;;23.80;99.90;;;;;;4875802;29;38337;-79
2023/06/26 11:01:17;;;;;;;;;;;24.30;99.90;;;;;;4910084;29;35897;-79
2023/06/26 11:04:02;;;;;;;6.43;1.35;;;24.40;1.00;;;;;;4881549;29;36162;-79
2023/06/26 11:06:29;;;;;;;5.07;1.33;;;24.10;1.00;;;;;;4886219;29;47152;-77
2023/06/26 11:09:04;;;;;;;3.88;1.20;;;24.10;99.90;;;;;;4905055;29;38982;-78
2023/06/26 11:11:53;;;;;;;4.22;0.95;;;23.90;1.00;;;;;;4894807;29;47108;-79
2023/06/26 11:14:21;;;;;;;1.70;0.80;;;23.60;91.00;;;;;;4906010;29;36076;-78
2023/06/26 11:16:48;;;;;;;4.15;1.00;;;23.90;99.90;;;;;;4869171;29;39962;-77
2023/06/26 11:19:16;;;;;;;4.90;1.38;;;24.10;1.00;;;;;;4907042;29;38272;-78
2023/06/26 11:21:43;;;;;;;5.60;1.20;;;24.00;22.40;;;;;;4877957;29;38545;-78
2023/06/26 11:24:11;;;;;;;7.38;1.30;;;24.10;1.00;;;;;;4877412;29;36268;-77
2023/06/26 11:26:41;;;;;;;10.85;1.45;;;23.90;1.00;;;;;;4881387;29;38366;-78
2023/06/26 11:29:08;;;;;;;3.88;0.80;;;24.00;1.00;;;;;;4874507;29;40116;-76
2023/06/26 11:31:37;;;;;;;8.75;1.27;;;24.00;99.90;;;;;;4898564;28;38353;-76
2023/06/26 11:34:11;;;;;;;2.88;0.70;;;24.20;1.00;;;;;;4872355;29;38625;-78
2023/06/26 11:36:46;;;;;;;4.95;1.17;;;24.50;99.90;;;;;;4874324;29;38614;-77
2023/06/26 11:39:12;;;;;;;4.90;1.30;;;25.00;1.00;;;;;;4905905;29;37153;-80
2023/06/26 11:41:40;;;;;;;3.88;1.08;;;24.80;99.90;;;;;;4887437;29;37757;-79
2023/06/26 11:44:10;;;;;;;4.18;1.42;;;24.70;1.00;;;;;;4906909;29;36372;-78
2023/06/26 11:46:37;;;;;;;10.60;1.67;;;24.40;28.40;;;;;;4869276;29;38819;-77
2023/06/26 11:49:08;;;;;;;6.07;1.52;;;24.00;99.90;;;;;;4900655;29;39002;-78
2023/06/26 11:51:38;;;;;;;11.30;1.75;;;23.90;1.00;;;;;;4884223;29;39834;-78
2023/06/26 11:54:04;;;;;;;3.90;1.10;;;24.00;1.00;;;;;;4886363;29;36109;-79
2023/06/26 11:56:31;;;;;;;2.20;1.17;;;24.10;1.00;;;;;;4878681;29;38757;-80
2023/06/26 11:59:03;;;;;;;9.57;1.45;;;24.30;1.00;;;;;;4881102;29;38398;-80
2023/06/26 12:01:42;;;;;;;9.40;1.40;;;24.50;1.00;;;;;;4899092;29;48248;-77
2023/06/26 12:04:09;;;;;;;5.38;1.30;;;24.50;99.90;;;;;;4878808;29;37183;-77
2023/06/26 12:06:38;;;;;;;7.03;1.20;;;24.30;1.00;;;;;;4873434;29;39174;-79
2023/06/26 12:09:12;;;;;;;7.65;1.10;;;24.40;1.00;;;;;;4881913;29;39268;-79
2023/06/26 12:11:42;;;;;;;5.75;1.20;;;24.30;1.00;;;;;;4881092;29;36735;-78
2023/06/26 12:14:08;;;;;;;10.82;1.85;;;24.50;99.90;;;;;;4873005;29;37056;-79
2023/06/26 12:16:36;;;;;;;6.45;1.25;;;24.80;1.00;;;;;;4895070;29;39471;-78
2023/06/26 12:19:04;;;;;;;3.63;1.30;;;24.90;99.90;;;;;;4874019;29;38089;-78
2023/06/26 12:21:36;;;;;;;4.22;1.10;;;24.50;1.00;;;;;;4903626;29;39031;-78
2023/06/26 12:24:03;;;;;;;;;;;24.70;1.00;;;;;;4898284;29;35842;-78
2023/06/26 12:26:29;;;;;;;6.22;1.23;;;25.20;29.60;;;;;;4886298;29;39149;-79
2023/06/26 12:29:02;;;;;;;3.35;1.38;;;24.60;9.70;;;;;;4908423;29;39995;-77
2023/06/26 12:31:28;;;;;;;4.80;1.15;;;24.50;1.00;;;;;;4959225;23;46965;-78
2023/06/26 12:33:54;;;;;;;6.68;1.08;;;24.50;1.00;;;;;;4896409;29;36702;-80
2023/06/26 12:36:21;;;;;;;2.75;0.98;;;24.70;1.00;;;;;;4918413;29;39926;-80
2023/06/26 12:38:49;;;;;;;3.85;1.00;;;24.50;1.00;;;;;;4915403;29;36867;-80
2023/06/26 12:41:17;;;;;;;3.58;1.05;;;24.30;99.90;;;;;;4913260;29;39527;-80
2023/06/26 12:43:43;;;;;;;5.88;1.13;;;24.40;99.90;;;;;;4912784;29;38157;-79
2023/06/26 12:46:11;;;;;;;2.42;0.98;;;24.30;1.00;;;;;;4911663;29;39397;-79
2023/06/26 12:48:46;;;;;;;4.55;1.50;;;24.10;99.90;;;;;;4915042;29;39297;-79
2023/06/26 12:51:27;;;;;;;3.90;0.98;;;23.90;1.00;;;;;;4929149;28;37598;-79
2023/06/26 12:53:54;;;;;;;1.48;1.08;;;24.00;99.90;;;;;;4909312;29;36188;-79
2023/06/26 12:56:21;;;;;;;2.30;1.00;;;24.20;99.90;;;;;;4916338;29;37789;-78
2023/06/26 13:03:59;;;;;;;2.60;0.90;;;25.20;1.00;;;;;;5453690;23;20061;-77
2023/06/26 13:06:28;;;;;;;7.43;0.98;;;25.30;1.00;;;;;;4895838;29;39634;-80
2023/06/26 13:08:54;;;;;;;5.97;1.30;;;25.40;1.00;;;;;;5147003;23;39111;-81
2023/06/26 13:11:21;;;;;;;1.95;1.00;;;25.20;99.90;;;;;;4916878;29;38126;-79
2023/06/26 13:13:47;;;;;;;1.95;1.02;;;25.00;1.00;;;;;;4914333;29;36044;-78
2023/06/26 13:16:13;;;;;;;4.55;1.10;;;24.90;1.00;;;;;;4917809;29;37352;-80
2023/06/26 13:18:40;;;;;;;4.50;1.50;;;24.50;1.00;;;;;;4915956;29;38345;-80
2023/06/26 13:21:13;;;;;;;5.70;1.00;;;25.00;99.90;;;;;;4916665;28;37774;-82
2023/06/26 13:23:41;;;;;;;8.13;1.25;;;25.40;1.00;;;;;;4924198;29;36887;-79
2023/06/26 13:26:08;;;;;;;3.70;1.02;;;25.50;1.00;;;;;;4916688;29;38471;-79
2023/06/26 13:28:35;;;;;;;7.05;1.02;;;25.60;1.00;;;;;;4922268;29;38151;-80
2023/06/26 13:31:02;;;;;;;4.65;1.35;;;25.80;1.00;;;;;;4933775;28;36970;-80
2023/06/26 13:33:31;;;;;;;12.32;1.40;;;25.60;1.00;;;;;;4931534;28;37308;-81
2023/06/26 13:36:00;;;;;;;4.05;0.90;;;25.20;1.00;;;;;;4912584;29;40375;-80
2023/06/26 13:38:26;;;;;;;2.10;0.70;;;24.70;1.00;;;;;;4902181;29;36683;-80
2023/06/26 13:41:00;;;;;;;3.42;0.80;;;24.40;1.00;;;;;;4922877;29;39311;-80
2023/06/26 13:43:28;;;;;;;3.00;0.95;;;24.30;1.00;;;;;;4916437;29;47787;-79
2023/06/26 13:45:55;;;;;;;3.28;0.98;;;24.40;1.00;;;;;;4915452;29;38590;-80
2023/06/26 13:53:34;;;;;;;3.33;0.82;;;24.10;99.90;;;;;;5390992;23;20049;-81
2023/06/26 13:56:01;;;;;;;2.15;1.20;;;24.20;99.90;;;;;;4918023;29;39754;-79
2023/06/26 13:58:32;;;;;;;4.07;1.08;;;24.00;1.00;;;;;;4899246;29;46371;-78
2023/06/26 14:00:59;;;;;;;3.23;1.00;;;23.90;1.00;;;;;;4898174;29;37465;-79
2023/06/26 14:03:28;;;;;;;4.47;1.10;;;24.00;1.00;;;;;;4898802;29;37336;-79
2023/06/26 14:05:54;;;;;;;3.95;1.00;;;24.00;99.90;;;;;;4896944;29;39227;-77
2023/06/26 14:08:26;;;;;;;3.63;1.23;;;23.80;1.00;;;;;;4912977;29;37148;-80
2023/06/26 14:10:52;;;;;;;2.22;0.80;;;23.70;1.00;;;;;;4918142;29;40225;-79
2023/06/26 14:13:18;;;;;;;3.60;1.20;;;23.80;99.90;;;;;;4931053;29;38762;-80
2023/06/26 14:15:44;;;;;;;3.95;1.02;;;23.80;99.90;;;;;;4932141;29;38685;-80
2023/06/26 14:18:17;;;;;;;3.95;1.30;;;23.80;99.90;;;;;;4919746;29;39600;-80
2023/06/26 14:20:43;;;;;;;5.53;1.02;;;23.80;99.90;;;;;;4914765;29;39713;-80
2023/06/26 14:23:09;;;;;;;3.38;1.00;;;23.80;1.00;;;;;;4914501;29;36467;-79
2023/06/26 14:25:57;;;;;;;4.43;0.90;;;23.90;99.90;;;;;;4911936;29;40379;-81
2023/06/26 14:36:37;;;;;;;4.13;1.15;;;24.00;1.00;;;;;;5073530;23;20044;-80
2023/06/26 14:39:09;;;;;;;2.22;1.00;;;24.30;99.90;;;;;;4900428;29;38171;-79
2023/06/26 14:41:39;;;;;;;5.20;1.33;;;24.40;1.00;;;;;;4896998;29;38004;-79
2023/06/26 14:44:08;;;;;;;4.38;1.30;;;24.60;99.90;;;;;;4901016;29;37536;-80
2023/06/26 14:46:40;;;;;;;8.07;1.40;;;24.70;99.90;;;;;;4898455;29;38609;-80
2023/06/26 14:49:13;;;;;;;6.50;1.27;;;24.70;99.90;;;;;;4894950;29;41395;-80
2023/06/26 14:51:41;;;;;;;11.55;1.30;;;24.40;99.90;;;;;;4888304;29;38612;-79
2023/06/26 14:54:08;;;;;;;5.47;1.42;;;24.40;1.00;;;;;;4897648;29;37797;-80